sensor_id;sensor_type;location;lat;lon;timestamp;P1;durP1;ratioP1;P2;durP2;ratioP2
9076;SDS011;4574;51.072;17.174;2023-03-14T00:00:11;190.57;;;44.60;;
9076;SDS011;4574;51.072;17.174;2023-03-14T00:02:41;102.33;;;26.93;;
9076;SDS011;4574;51.072;17.174;2023-03-14T00:05:10;74.03;;;23.67;;
9076;SDS011;4574;51.072;17.174;2023-03-14T00:07:40;78.83;;;23.63;;
9076;SDS011;4574;51.072;17.174;2023-03-14T00:10:11;59.53;;;20.10;;
9076;SDS011;4574;51.072;17.174;2023-03-14T00:12:42;79.20;;;24.60;;
9076;SDS011;4574;51.072;17.174;2023-03-14T00:15:11;81.70;;;24.37;;
9076;SDS011;4574;51.072;17.174;2023-03-14T00:17:42;73.43;;;22.47;;
9076;SDS011;4574;51.072;17.174;2023-03-14T00:20:11;40.80;;;14.17;;
9076;SDS011;4574;51.072;17.174;2023-03-14T00:22:42;31.37;;;11.83;;
9076;SDS011;4574;51.072;17.174;2023-03-14T00:25:11;32.60;;;13.20;;
9076;SDS011;4574;51.072;17.174;2023-03-14T00:27:40;23.27;;;10.13;;
9076;SDS011;4574;51.072;17.174;2023-03-14T00:30:09;25.77;;;12.13;;
9076;SDS011;4574;51.072;17.174;2023-03-14T00:32:38;53.00;;;18.23;;
9076;SDS011;4574;51.072;17.174;2023-03-14T00:35:08;77.77;;;25.20;;
9076;SDS011;4574;51.072;17.174;2023-03-14T00:37:37;87.93;;;27.97;;
9076;SDS011;4574;51.072;17.174;2023-03-14T00:40:11;81.47;;;26.80;;
9076;SDS011;4574;51.072;17.174;2023-03-14T00:42:40;45.67;;;18.47;;
9076;SDS011;4574;51.072;17.174;2023-03-14T00:45:09;44.13;;;18.33;;
9076;SDS011;4574;51.072;17.174;2023-03-14T00:47:38;34.07;;;13.47;;
9076;SDS011;4574;51.072;17.174;2023-03-14T00:50:07;23.50;;;10.70;;
9076;SDS011;4574;51.072;17.174;2023-03-14T00:52:37;17.23;;;7.63;;
9076;SDS011;4574;51.072;17.174;2023-03-14T00:55:08;16.53;;;7.67;;
9076;SDS011;4574;51.072;17.174;2023-03-14T00:57:37;14.90;;;7.73;;
9076;SDS011;4574;51.072;17.174;2023-03-14T01:00:06;36.20;;;12.13;;
9076;SDS011;4574;51.072;17.174;2023-03-14T01:02:38;64.97;;;16.90;;
9076;SDS011;4574;51.072;17.174;2023-03-14T01:05:07;54.50;;;16.07;;
9076;SDS011;4574;51.072;17.174;2023-03-14T01:07:41;21.13;;;10.00;;
9076;SDS011;4574;51.072;17.174;2023-03-14T01:10:11;14.40;;;8.93;;
9076;SDS011;4574;51.072;17.174;2023-03-14T01:12:41;11.93;;;7.50;;
9076;SDS011;4574;51.072;17.174;2023-03-14T01:15:11;16.03;;;8.20;;
9076;SDS011;4574;51.072;17.174;2023-03-14T01:17:40;17.27;;;8.33;;
9076;SDS011;4574;51.072;17.174;2023-03-14T01:20:09;20.67;;;9.80;;
9076;SDS011;4574;51.072;17.174;2023-03-14T01:22:39;20.53;;;9.50;;
9076;SDS011;4574;51.072;17.174;2023-03-14T01:25:10;23.70;;;10.70;;
9076;SDS011;4574;51.072;17.174;2023-03-14T01:27:44;25.30;;;11.80;;
9076;SDS011;4574;51.072;17.174;2023-03-14T01:30:13;32.33;;;13.23;;
9076;SDS011;4574;51.072;17.174;2023-03-14T01:32:43;26.03;;;11.37;;
9076;SDS011;4574;51.072;17.174;2023-03-14T01:35:12;22.37;;;10.73;;
9076;SDS011;4574;51.072;17.174;2023-03-14T01:37:40;19.53;;;9.87;;
9076;SDS011;4574;51.072;17.174;2023-03-14T01:40:10;19.83;;;9.80;;
9076;SDS011;4574;51.072;17.174;2023-03-14T01:42:46;15.73;;;9.23;;
9076;SDS011;4574;51.072;17.174;2023-03-14T01:48:19;23.40;;;12.03;;
9076;SDS011;4574;51.072;17.174;2023-03-14T01:50:48;26.93;;;12.13;;
9076;SDS011;4574;51.072;17.174;2023-03-14T01:53:16;40.50;;;18.90;;
9076;SDS011;4574;51.072;17.174;2023-03-14T01:55:49;65.47;;;25.60;;
9076;SDS011;4574;51.072;17.174;2023-03-14T01:58:24;39.17;;;16.67;;
9076;SDS011;4574;51.072;17.174;2023-03-14T02:00:55;39.47;;;16.17;;
9076;SDS011;4574;51.072;17.174;2023-03-14T02:03:26;21.80;;;10.10;;
9076;SDS011;4574;51.072;17.174;2023-03-14T02:05:57;16.03;;;7.93;;
9076;SDS011;4574;51.072;17.174;2023-03-14T02:08:32;13.13;;;7.00;;
9076;SDS011;4574;51.072;17.174;2023-03-14T02:11:05;8.70;;;5.57;;
9076;SDS011;4574;51.072;17.174;2023-03-14T02:13:35;12.70;;;5.87;;
9076;SDS011;4574;51.072;17.174;2023-03-14T02:16:04;10.47;;;5.43;;
9076;SDS011;4574;51.072;17.174;2023-03-14T02:18:33;10.00;;;4.50;;
9076;SDS011;4574;51.072;17.174;2023-03-14T02:21:03;9.00;;;3.90;;
9076;SDS011;4574;51.072;17.174;2023-03-14T02:23:43;9.30;;;4.00;;
9076;SDS011;4574;51.072;17.174;2023-03-14T02:26:21;5.73;;;3.50;;
9076;SDS011;4574;51.072;17.174;2023-03-14T02:28:55;6.20;;;3.60;;
9076;SDS011;4574;51.072;17.174;2023-03-14T02:31:24;7.83;;;3.33;;
9076;SDS011;4574;51.072;17.174;2023-03-14T02:33:53;5.33;;;3.37;;
9076;SDS011;4574;51.072;17.174;2023-03-14T02:36:23;4.40;;;3.53;;
9076;SDS011;4574;51.072;17.174;2023-03-14T02:38:53;7.57;;;3.77;;
9076;SDS011;4574;51.072;17.174;2023-03-14T02:41:30;5.90;;;3.97;;
9076;SDS011;4574;51.072;17.174;2023-03-14T02:44:00;4.90;;;3.10;;
9076;SDS011;4574;51.072;17.174;2023-03-14T02:46:29;4.10;;;3.13;;
9076;SDS011;4574;51.072;17.174;2023-03-14T02:49:00;7.30;;;3.40;;
9076;SDS011;4574;51.072;17.174;2023-03-14T02:51:31;5.40;;;3.67;;
9076;SDS011;4574;51.072;17.174;2023-03-14T02:54:01;6.00;;;3.40;;
9076;SDS011;4574;51.072;17.174;2023-03-14T02:56:30;4.33;;;3.47;;
9076;SDS011;4574;51.072;17.174;2023-03-14T02:59:00;4.77;;;2.97;;
9076;SDS011;4574;51.072;17.174;2023-03-14T03:01:30;4.43;;;2.70;;
9076;SDS011;4574;51.072;17.174;2023-03-14T03:03:59;4.87;;;3.17;;
9076;SDS011;4574;51.072;17.174;2023-03-14T03:06:27;4.90;;;3.03;;
9076;SDS011;4574;51.072;17.174;2023-03-14T03:08:56;4.60;;;2.90;;
9076;SDS011;4574;51.072;17.174;2023-03-14T03:11:25;3.53;;;2.57;;
9076;SDS011;4574;51.072;17.174;2023-03-14T03:13:53;3.27;;;2.60;;
9076;SDS011;4574;51.072;17.174;2023-03-14T03:16:23;4.10;;;2.70;;
9076;SDS011;4574;51.072;17.174;2023-03-14T03:18:52;4.87;;;2.57;;
9076;SDS011;4574;51.072;17.174;2023-03-14T03:21:21;5.00;;;2.83;;
9076;SDS011;4574;51.072;17.174;2023-03-14T03:23:50;5.67;;;2.80;;
9076;SDS011;4574;51.072;17.174;2023-03-14T03:26:19;3.63;;;2.37;;
9076;SDS011;4574;51.072;17.174;2023-03-14T03:28:50;4.00;;;2.50;;
9076;SDS011;4574;51.072;17.174;2023-03-14T03:31:18;4.53;;;2.43;;
9076;SDS011;4574;51.072;17.174;2023-03-14T03:33:48;5.83;;;2.70;;
9076;SDS011;4574;51.072;17.174;2023-03-14T03:36:20;6.77;;;2.67;;
9076;SDS011;4574;51.072;17.174;2023-03-14T03:38:49;5.87;;;2.60;;
9076;SDS011;4574;51.072;17.174;2023-03-14T03:41:18;3.47;;;2.30;;
9076;SDS011;4574;51.072;17.174;2023-03-14T03:43:46;4.30;;;2.47;;
9076;SDS011;4574;51.072;17.174;2023-03-14T03:46:15;3.30;;;2.63;;
9076;SDS011;4574;51.072;17.174;2023-03-14T03:48:44;4.37;;;2.70;;
9076;SDS011;4574;51.072;17.174;2023-03-14T03:51:14;2.60;;;2.20;;
9076;SDS011;4574;51.072;17.174;2023-03-14T03:53:43;3.33;;;2.43;;
9076;SDS011;4574;51.072;17.174;2023-03-14T03:56:12;5.63;;;2.77;;
9076;SDS011;4574;51.072;17.174;2023-03-14T03:58:40;3.90;;;2.67;;
9076;SDS011;4574;51.072;17.174;2023-03-14T04:01:09;3.80;;;2.43;;
9076;SDS011;4574;51.072;17.174;2023-03-14T04:03:38;5.60;;;2.93;;
9076;SDS011;4574;51.072;17.174;2023-03-14T04:06:08;3.77;;;2.57;;
9076;SDS011;4574;51.072;17.174;2023-03-14T04:08:41;3.87;;;2.67;;
9076;SDS011;4574;51.072;17.174;2023-03-14T04:11:10;4.60;;;2.87;;
9076;SDS011;4574;51.072;17.174;2023-03-14T04:13:38;4.53;;;2.63;;
9076;SDS011;4574;51.072;17.174;2023-03-14T04:16:09;4.33;;;2.33;;
9076;SDS011;4574;51.072;17.174;2023-03-14T04:18:42;4.80;;;2.80;;
9076;SDS011;4574;51.072;17.174;2023-03-14T04:21:11;6.07;;;2.80;;
9076;SDS011;4574;51.072;17.174;2023-03-14T04:23:41;5.23;;;2.60;;
9076;SDS011;4574;51.072;17.174;2023-03-14T04:26:09;2.77;;;2.53;;
9076;SDS011;4574;51.072;17.174;2023-03-14T04:28:38;3.37;;;2.40;;
9076;SDS011;4574;51.072;17.174;2023-03-14T04:31:07;4.07;;;2.47;;
9076;SDS011;4574;51.072;17.174;2023-03-14T04:33:36;3.97;;;2.77;;
9076;SDS011;4574;51.072;17.174;2023-03-14T04:36:05;3.70;;;2.80;;
9076;SDS011;4574;51.072;17.174;2023-03-14T04:38:35;5.57;;;2.40;;
9076;SDS011;4574;51.072;17.174;2023-03-14T04:41:06;4.30;;;2.60;;
9076;SDS011;4574;51.072;17.174;2023-03-14T04:43:35;3.73;;;2.77;;
9076;SDS011;4574;51.072;17.174;2023-03-14T04:46:04;3.90;;;2.60;;
9076;SDS011;4574;51.072;17.174;2023-03-14T04:48:33;2.40;;;2.10;;
9076;SDS011;4574;51.072;17.174;2023-03-14T04:51:01;3.87;;;3.00;;
9076;SDS011;4574;51.072;17.174;2023-03-14T04:53:30;3.53;;;2.30;;
9076;SDS011;4574;51.072;17.174;2023-03-14T04:55:59;2.77;;;2.20;;
9076;SDS011;4574;51.072;17.174;2023-03-14T04:58:29;5.87;;;2.50;;
9076;SDS011;4574;51.072;17.174;2023-03-14T05:01:01;4.87;;;2.90;;
9076;SDS011;4574;51.072;17.174;2023-03-14T05:03:30;4.23;;;2.47;;
9076;SDS011;4574;51.072;17.174;2023-03-14T05:05:58;4.13;;;2.80;;
9076;SDS011;4574;51.072;17.174;2023-03-14T05:08:27;4.70;;;3.17;;
9076;SDS011;4574;51.072;17.174;2023-03-14T05:10:56;3.80;;;2.70;;
9076;SDS011;4574;51.072;17.174;2023-03-14T05:13:26;3.40;;;2.60;;
9076;SDS011;4574;51.072;17.174;2023-03-14T05:16:02;3.87;;;2.43;;
9076;SDS011;4574;51.072;17.174;2023-03-14T05:18:32;3.87;;;2.60;;
9076;SDS011;4574;51.072;17.174;2023-03-14T05:21:01;5.37;;;2.80;;
9076;SDS011;4574;51.072;17.174;2023-03-14T05:23:30;5.80;;;3.43;;
9076;SDS011;4574;51.072;17.174;2023-03-14T05:25:58;6.43;;;3.37;;
9076;SDS011;4574;51.072;17.174;2023-03-14T05:28:27;4.67;;;2.70;;
9076;SDS011;4574;51.072;17.174;2023-03-14T05:30:57;4.80;;;3.10;;
9076;SDS011;4574;51.072;17.174;2023-03-14T05:33:26;6.63;;;2.50;;
9076;SDS011;4574;51.072;17.174;2023-03-14T05:35:55;4.20;;;3.10;;
9076;SDS011;4574;51.072;17.174;2023-03-14T05:38:24;7.33;;;4.87;;
9076;SDS011;4574;51.072;17.174;2023-03-14T05:40:52;5.10;;;3.20;;
9076;SDS011;4574;51.072;17.174;2023-03-14T05:43:21;5.93;;;2.53;;
9076;SDS011;4574;51.072;17.174;2023-03-14T05:45:50;4.03;;;2.47;;
9076;SDS011;4574;51.072;17.174;2023-03-14T05:48:20;3.50;;;2.50;;
9076;SDS011;4574;51.072;17.174;2023-03-14T05:50:54;3.03;;;2.43;;
9076;SDS011;4574;51.072;17.174;2023-03-14T05:53:24;4.80;;;2.77;;
9076;SDS011;4574;51.072;17.174;2023-03-14T05:55:53;3.10;;;2.70;;
9076;SDS011;4574;51.072;17.174;2023-03-14T05:58:23;4.10;;;2.63;;
9076;SDS011;4574;51.072;17.174;2023-03-14T06:00:52;5.90;;;2.83;;
9076;SDS011;4574;51.072;17.174;2023-03-14T06:03:22;4.17;;;2.67;;
9076;SDS011;4574;51.072;17.174;2023-03-14T06:05:54;4.40;;;3.10;;
9076;SDS011;4574;51.072;17.174;2023-03-14T06:08:23;4.87;;;2.90;;
9076;SDS011;4574;51.072;17.174;2023-03-14T06:10:52;5.23;;;2.73;;
9076;SDS011;4574;51.072;17.174;2023-03-14T06:13:21;5.00;;;2.90;;
9076;SDS011;4574;51.072;17.174;2023-03-14T06:15:49;4.03;;;2.73;;
9076;SDS011;4574;51.072;17.174;2023-03-14T06:18:18;6.43;;;2.90;;
9076;SDS011;4574;51.072;17.174;2023-03-14T06:20:48;3.63;;;2.30;;
9076;SDS011;4574;51.072;17.174;2023-03-14T06:23:16;4.07;;;2.90;;
9076;SDS011;4574;51.072;17.174;2023-03-14T06:25:45;7.10;;;3.20;;
9076;SDS011;4574;51.072;17.174;2023-03-14T06:28:14;5.83;;;3.40;;
9076;SDS011;4574;51.072;17.174;2023-03-14T06:30:43;4.80;;;3.10;;
9076;SDS011;4574;51.072;17.174;2023-03-14T06:33:12;5.83;;;3.07;;
9076;SDS011;4574;51.072;17.174;2023-03-14T06:35:40;3.47;;;2.67;;
9076;SDS011;4574;51.072;17.174;2023-03-14T06:38:10;5.47;;;3.10;;
9076;SDS011;4574;51.072;17.174;2023-03-14T06:40:39;5.57;;;3.20;;
9076;SDS011;4574;51.072;17.174;2023-03-14T06:43:07;4.20;;;2.90;;
9076;SDS011;4574;51.072;17.174;2023-03-14T06:45:36;4.83;;;3.23;;
9076;SDS011;4574;51.072;17.174;2023-03-14T06:48:04;4.27;;;3.33;;
9076;SDS011;4574;51.072;17.174;2023-03-14T06:50:33;5.87;;;3.20;;
9076;SDS011;4574;51.072;17.174;2023-03-14T06:53:02;5.20;;;3.10;;
9076;SDS011;4574;51.072;17.174;2023-03-14T06:55:33;8.37;;;3.30;;
9076;SDS011;4574;51.072;17.174;2023-03-14T06:58:01;5.13;;;3.60;;
9076;SDS011;4574;51.072;17.174;2023-03-14T07:00:30;6.43;;;3.43;;
9076;SDS011;4574;51.072;17.174;2023-03-14T07:02:58;6.00;;;3.27;;
9076;SDS011;4574;51.072;17.174;2023-03-14T07:05:27;7.37;;;3.20;;
9076;SDS011;4574;51.072;17.174;2023-03-14T07:07:56;5.53;;;3.47;;
9076;SDS011;4574;51.072;17.174;2023-03-14T07:10:26;9.10;;;3.43;;
9076;SDS011;4574;51.072;17.174;2023-03-14T07:12:56;10.00;;;3.50;;
9076;SDS011;4574;51.072;17.174;2023-03-14T07:15:25;4.97;;;3.30;;
9076;SDS011;4574;51.072;17.174;2023-03-14T07:17:54;11.50;;;4.50;;
9076;SDS011;4574;51.072;17.174;2023-03-14T07:20:22;6.63;;;3.30;;
9076;SDS011;4574;51.072;17.174;2023-03-14T07:22:52;8.63;;;3.00;;
9076;SDS011;4574;51.072;17.174;2023-03-14T07:25:29;6.83;;;3.10;;
9076;SDS011;4574;51.072;17.174;2023-03-14T07:28:02;7.67;;;2.97;;
9076;SDS011;4574;51.072;17.174;2023-03-14T07:30:31;4.37;;;3.17;;
9076;SDS011;4574;51.072;17.174;2023-03-14T07:32:59;4.93;;;3.03;;
9076;SDS011;4574;51.072;17.174;2023-03-14T07:35:28;5.23;;;3.13;;
9076;SDS011;4574;51.072;17.174;2023-03-14T07:37:57;4.57;;;3.50;;
9076;SDS011;4574;51.072;17.174;2023-03-14T07:40:25;5.67;;;3.03;;
9076;SDS011;4574;51.072;17.174;2023-03-14T07:42:54;5.17;;;3.60;;
9076;SDS011;4574;51.072;17.174;2023-03-14T07:45:24;4.27;;;3.00;;
9076;SDS011;4574;51.072;17.174;2023-03-14T07:47:53;6.53;;;3.87;;
9076;SDS011;4574;51.072;17.174;2023-03-14T07:50:24;7.70;;;3.27;;
9076;SDS011;4574;51.072;17.174;2023-03-14T07:52:53;6.80;;;3.10;;
9076;SDS011;4574;51.072;17.174;2023-03-14T07:55:21;5.80;;;4.13;;
9076;SDS011;4574;51.072;17.174;2023-03-14T07:57:50;5.63;;;3.33;;
9076;SDS011;4574;51.072;17.174;2023-03-14T08:00:19;4.90;;;3.23;;
9076;SDS011;4574;51.072;17.174;2023-03-14T08:02:50;9.50;;;3.37;;
9076;SDS011;4574;51.072;17.174;2023-03-14T08:05:20;5.10;;;3.60;;
9076;SDS011;4574;51.072;17.174;2023-03-14T08:07:48;10.67;;;3.80;;
9076;SDS011;4574;51.072;17.174;2023-03-14T08:10:17;7.53;;;4.03;;
9076;SDS011;4574;51.072;17.174;2023-03-14T08:12:49;10.63;;;4.07;;
9076;SDS011;4574;51.072;17.174;2023-03-14T08:15:23;6.33;;;4.00;;
9076;SDS011;4574;51.072;17.174;2023-03-14T08:17:55;9.43;;;3.67;;
9076;SDS011;4574;51.072;17.174;2023-03-14T08:20:25;7.33;;;3.90;;
9076;SDS011;4574;51.072;17.174;2023-03-14T08:22:56;5.03;;;3.70;;
9076;SDS011;4574;51.072;17.174;2023-03-14T08:25:26;6.50;;;4.10;;
9076;SDS011;4574;51.072;17.174;2023-03-14T08:27:56;5.50;;;3.60;;
9076;SDS011;4574;51.072;17.174;2023-03-14T08:30:24;5.47;;;3.67;;
9076;SDS011;4574;51.072;17.174;2023-03-14T08:32:55;6.40;;;3.57;;
9076;SDS011;4574;51.072;17.174;2023-03-14T08:35:25;10.00;;;4.47;;
9076;SDS011;4574;51.072;17.174;2023-03-14T08:37:54;6.90;;;4.17;;
9076;SDS011;4574;51.072;17.174;2023-03-14T08:40:23;9.47;;;4.73;;
9076;SDS011;4574;51.072;17.174;2023-03-14T08:42:52;6.00;;;4.83;;
9076;SDS011;4574;51.072;17.174;2023-03-14T08:45:21;7.93;;;5.40;;
9076;SDS011;4574;51.072;17.174;2023-03-14T08:47:51;11.07;;;5.43;;
9076;SDS011;4574;51.072;17.174;2023-03-14T08:50:21;12.63;;;7.17;;
9076;SDS011;4574;51.072;17.174;2023-03-14T08:52:50;10.30;;;5.37;;
9076;SDS011;4574;51.072;17.174;2023-03-14T08:55:19;8.90;;;4.23;;
9076;SDS011;4574;51.072;17.174;2023-03-14T08:57:48;7.83;;;4.57;;
9076;SDS011;4574;51.072;17.174;2023-03-14T09:00:17;11.90;;;4.73;;
9076;SDS011;4574;51.072;17.174;2023-03-14T09:02:46;8.13;;;4.50;;
9076;SDS011;4574;51.072;17.174;2023-03-14T09:05:15;7.27;;;4.03;;
9076;SDS011;4574;51.072;17.174;2023-03-14T09:07:45;7.63;;;4.27;;
9076;SDS011;4574;51.072;17.174;2023-03-14T09:10:14;6.07;;;4.13;;
9076;SDS011;4574;51.072;17.174;2023-03-14T09:12:43;6.67;;;4.10;;
9076;SDS011;4574;51.072;17.174;2023-03-14T09:15:11;8.57;;;4.73;;
9076;SDS011;4574;51.072;17.174;2023-03-14T09:17:42;14.47;;;8.00;;
9076;SDS011;4574;51.072;17.174;2023-03-14T09:20:10;18.90;;;12.30;;
9076;SDS011;4574;51.072;17.174;2023-03-14T09:22:41;14.87;;;8.97;;
9076;SDS011;4574;51.072;17.174;2023-03-14T09:25:11;16.10;;;11.77;;
9076;SDS011;4574;51.072;17.174;2023-03-14T09:27:39;16.67;;;10.87;;
9076;SDS011;4574;51.072;17.174;2023-03-14T09:30:08;17.03;;;8.13;;
9076;SDS011;4574;51.072;17.174;2023-03-14T09:32:38;8.30;;;6.33;;
9076;SDS011;4574;51.072;17.174;2023-03-14T09:35:07;64.17;;;41.33;;
9076;SDS011;4574;51.072;17.174;2023-03-14T09:37:36;9.47;;;6.57;;
9076;SDS011;4574;51.072;17.174;2023-03-14T09:40:06;10.27;;;5.53;;
9076;SDS011;4574;51.072;17.174;2023-03-14T09:42:41;8.93;;;5.80;;
9076;SDS011;4574;51.072;17.174;2023-03-14T09:45:11;7.40;;;6.43;;
9076;SDS011;4574;51.072;17.174;2023-03-14T09:47:53;8.43;;;5.93;;
9076;SDS011;4574;51.072;17.174;2023-03-14T09:50:26;9.57;;;5.03;;
9076;SDS011;4574;51.072;17.174;2023-03-14T09:53:02;8.53;;;4.50;;
9076;SDS011;4574;51.072;17.174;2023-03-14T09:55:32;7.13;;;4.90;;
9076;SDS011;4574;51.072;17.174;2023-03-14T09:58:04;11.13;;;8.60;;
9076;SDS011;4574;51.072;17.174;2023-03-14T10:00:39;14.80;;;13.23;;
9076;SDS011;4574;51.072;17.174;2023-03-14T10:03:17;8.03;;;6.40;;
9076;SDS011;4574;51.072;17.174;2023-03-14T10:05:50;10.53;;;7.77;;
9076;SDS011;4574;51.072;17.174;2023-03-14T10:08:19;13.53;;;8.17;;
9076;SDS011;4574;51.072;17.174;2023-03-14T10:10:47;10.77;;;8.47;;
9076;SDS011;4574;51.072;17.174;2023-03-14T10:13:18;5.40;;;4.77;;
9076;SDS011;4574;51.072;17.174;2023-03-14T10:15:51;11.70;;;6.53;;
9076;SDS011;4574;51.072;17.174;2023-03-14T10:18:22;5.60;;;4.00;;
9076;SDS011;4574;51.072;17.174;2023-03-14T10:21:05;9.27;;;4.00;;
9076;SDS011;4574;51.072;17.174;2023-03-14T10:23:34;5.80;;;3.73;;
9076;SDS011;4574;51.072;17.174;2023-03-14T10:26:06;4.23;;;3.50;;
9076;SDS011;4574;51.072;17.174;2023-03-14T10:28:42;6.17;;;3.80;;
9076;SDS011;4574;51.072;17.174;2023-03-14T10:31:13;6.80;;;4.00;;
9076;SDS011;4574;51.072;17.174;2023-03-14T10:33:42;6.80;;;4.30;;
9076;SDS011;4574;51.072;17.174;2023-03-14T10:36:27;8.33;;;4.60;;
9076;SDS011;4574;51.072;17.174;2023-03-14T10:38:57;8.37;;;4.00;;
9076;SDS011;4574;51.072;17.174;2023-03-14T10:41:33;9.47;;;4.10;;
9076;SDS011;4574;51.072;17.174;2023-03-14T10:44:03;8.53;;;4.47;;
9076;SDS011;4574;51.072;17.174;2023-03-14T10:46:35;6.60;;;4.20;;
9076;SDS011;4574;51.072;17.174;2023-03-14T10:49:04;7.50;;;4.60;;
9076;SDS011;4574;51.072;17.174;2023-03-14T10:51:34;8.53;;;4.30;;
9076;SDS011;4574;51.072;17.174;2023-03-14T10:54:03;10.93;;;5.53;;
9076;SDS011;4574;51.072;17.174;2023-03-14T10:56:40;5.80;;;4.60;;
9076;SDS011;4574;51.072;17.174;2023-03-14T10:59:13;7.77;;;4.83;;
9076;SDS011;4574;51.072;17.174;2023-03-14T11:01:44;6.47;;;4.27;;
9076;SDS011;4574;51.072;17.174;2023-03-14T11:04:24;5.60;;;3.93;;
9076;SDS011;4574;51.072;17.174;2023-03-14T11:07:08;6.57;;;4.10;;
9076;SDS011;4574;51.072;17.174;2023-03-14T11:09:43;16.33;;;12.30;;
9076;SDS011;4574;51.072;17.174;2023-03-14T11:12:23;11.73;;;8.63;;
9076;SDS011;4574;51.072;17.174;2023-03-14T11:15:05;11.80;;;7.47;;
9076;SDS011;4574;51.072;17.174;2023-03-14T11:17:46;7.07;;;5.80;;
9076;SDS011;4574;51.072;17.174;2023-03-14T11:20:31;5.00;;;3.90;;
9076;SDS011;4574;51.072;17.174;2023-03-14T11:23:04;6.43;;;4.73;;
9076;SDS011;4574;51.072;17.174;2023-03-14T11:25:42;8.73;;;6.33;;
9076;SDS011;4574;51.072;17.174;2023-03-14T11:28:18;10.43;;;6.93;;
9076;SDS011;4574;51.072;17.174;2023-03-14T11:30:53;9.13;;;6.77;;
9076;SDS011;4574;51.072;17.174;2023-03-14T11:33:24;10.93;;;8.50;;
9076;SDS011;4574;51.072;17.174;2023-03-14T11:35:58;8.77;;;4.27;;
9076;SDS011;4574;51.072;17.174;2023-03-14T11:38:33;9.17;;;7.13;;
9076;SDS011;4574;51.072;17.174;2023-03-14T11:41:09;7.10;;;5.60;;
9076;SDS011;4574;51.072;17.174;2023-03-14T11:43:41;9.00;;;4.67;;
9076;SDS011;4574;51.072;17.174;2023-03-14T11:46:18;9.03;;;5.07;;
9076;SDS011;4574;51.072;17.174;2023-03-14T11:48:54;7.40;;;4.57;;
9076;SDS011;4574;51.072;17.174;2023-03-14T11:51:31;7.30;;;4.20;;
9076;SDS011;4574;51.072;17.174;2023-03-14T11:54:04;8.27;;;4.30;;
9076;SDS011;4574;51.072;17.174;2023-03-14T11:56:45;7.60;;;4.80;;
9076;SDS011;4574;51.072;17.174;2023-03-14T11:59:19;5.93;;;4.10;;
9076;SDS011;4574;51.072;17.174;2023-03-14T12:01:56;10.40;;;6.07;;
9076;SDS011;4574;51.072;17.174;2023-03-14T12:04:31;4.60;;;4.10;;
9076;SDS011;4574;51.072;17.174;2023-03-14T12:07:15;6.70;;;4.00;;
9076;SDS011;4574;51.072;17.174;2023-03-14T12:09:48;8.07;;;3.80;;
9076;SDS011;4574;51.072;17.174;2023-03-14T12:12:20;7.03;;;3.90;;
9076;SDS011;4574;51.072;17.174;2023-03-14T12:14:54;6.10;;;3.70;;
9076;SDS011;4574;51.072;17.174;2023-03-14T12:17:27;5.77;;;3.80;;
9076;SDS011;4574;51.072;17.174;2023-03-14T12:20:05;6.97;;;4.33;;
9076;SDS011;4574;51.072;17.174;2023-03-14T12:22:43;7.47;;;3.67;;
9076;SDS011;4574;51.072;17.174;2023-03-14T12:25:15;10.50;;;7.23;;
9076;SDS011;4574;51.072;17.174;2023-03-14T12:27:47;7.13;;;4.93;;
9076;SDS011;4574;51.072;17.174;2023-03-14T12:30:31;6.80;;;4.40;;
9076;SDS011;4574;51.072;17.174;2023-03-14T12:39:14;4.87;;;4.00;;
9076;SDS011;4574;51.072;17.174;2023-03-14T12:42:01;5.60;;;4.10;;
9076;SDS011;4574;51.072;17.174;2023-03-14T12:44:38;5.00;;;4.07;;
9076;SDS011;4574;51.072;17.174;2023-03-14T12:50:19;6.27;;;4.20;;
9076;SDS011;4574;51.072;17.174;2023-03-14T12:53:07;5.50;;;4.10;;
9076;SDS011;4574;51.072;17.174;2023-03-14T12:56:04;6.30;;;3.93;;
9076;SDS011;4574;51.072;17.174;2023-03-14T12:58:39;3.87;;;3.33;;
9076;SDS011;4574;51.072;17.174;2023-03-14T13:01:16;6.67;;;3.93;;
9076;SDS011;4574;51.072;17.174;2023-03-14T13:03:47;3.33;;;3.03;;
9076;SDS011;4574;51.072;17.174;2023-03-14T13:12:27;5.60;;;3.63;;
9076;SDS011;4574;51.072;17.174;2023-03-14T13:14:59;4.80;;;3.30;;
9076;SDS011;4574;51.072;17.174;2023-03-14T13:17:41;4.73;;;3.27;;
9076;SDS011;4574;51.072;17.174;2023-03-14T13:20:12;5.20;;;3.50;;
9076;SDS011;4574;51.072;17.174;2023-03-14T13:22:47;5.30;;;3.40;;
9076;SDS011;4574;51.072;17.174;2023-03-14T13:25:16;4.20;;;3.30;;
9076;SDS011;4574;51.072;17.174;2023-03-14T13:27:49;4.73;;;2.97;;
9076;SDS011;4574;51.072;17.174;2023-03-14T13:30:22;4.27;;;3.23;;
9076;SDS011;4574;51.072;17.174;2023-03-14T13:32:53;5.90;;;3.47;;
9076;SDS011;4574;51.072;17.174;2023-03-14T13:35:24;4.13;;;3.27;;
9076;SDS011;4574;51.072;17.174;2023-03-14T13:37:55;4.73;;;3.10;;
9076;SDS011;4574;51.072;17.174;2023-03-14T13:40:38;5.57;;;3.40;;
9076;SDS011;4574;51.072;17.174;2023-03-14T13:43:13;6.47;;;3.37;;
9076;SDS011;4574;51.072;17.174;2023-03-14T13:45:51;6.80;;;5.40;;
9076;SDS011;4574;51.072;17.174;2023-03-14T13:48:22;4.47;;;3.63;;
9076;SDS011;4574;51.072;17.174;2023-03-14T13:50:55;12.33;;;9.33;;
9076;SDS011;4574;51.072;17.174;2023-03-14T13:53:27;5.97;;;4.63;;
9076;SDS011;4574;51.072;17.174;2023-03-14T13:55:55;5.63;;;3.80;;
9076;SDS011;4574;51.072;17.174;2023-03-14T13:58:27;5.37;;;4.17;;
9076;SDS011;4574;51.072;17.174;2023-03-14T14:00:58;3.80;;;3.47;;
9076;SDS011;4574;51.072;17.174;2023-03-14T14:03:30;4.70;;;3.70;;
9076;SDS011;4574;51.072;17.174;2023-03-14T14:06:01;6.20;;;3.83;;
9076;SDS011;4574;51.072;17.174;2023-03-14T14:08:30;6.17;;;3.93;;
9076;SDS011;4574;51.072;17.174;2023-03-14T14:11:01;4.17;;;3.33;;
9076;SDS011;4574;51.072;17.174;2023-03-14T14:13:33;6.63;;;4.33;;
9076;SDS011;4574;51.072;17.174;2023-03-14T14:16:03;4.60;;;3.63;;
9076;SDS011;4574;51.072;17.174;2023-03-14T14:18:33;4.27;;;2.97;;
9076;SDS011;4574;51.072;17.174;2023-03-14T14:21:03;6.60;;;3.23;;
9076;SDS011;4574;51.072;17.174;2023-03-14T14:23:43;5.30;;;3.30;;
9076;SDS011;4574;51.072;17.174;2023-03-14T14:26:13;5.83;;;3.57;;
9076;SDS011;4574;51.072;17.174;2023-03-14T14:28:47;5.30;;;3.37;;
9076;SDS011;4574;51.072;17.174;2023-03-14T14:31:27;4.43;;;3.17;;
9076;SDS011;4574;51.072;17.174;2023-03-14T14:33:56;4.00;;;2.90;;
9076;SDS011;4574;51.072;17.174;2023-03-14T14:36:27;6.23;;;3.40;;
9076;SDS011;4574;51.072;17.174;2023-03-14T14:39:00;5.40;;;3.17;;
9076;SDS011;4574;51.072;17.174;2023-03-14T14:41:32;5.30;;;3.37;;
9076;SDS011;4574;51.072;17.174;2023-03-14T14:44:05;5.27;;;3.60;;
9076;SDS011;4574;51.072;17.174;2023-03-14T14:46:35;5.37;;;3.50;;
9076;SDS011;4574;51.072;17.174;2023-03-14T14:49:06;5.13;;;3.40;;
9076;SDS011;4574;51.072;17.174;2023-03-14T14:51:40;5.40;;;3.80;;
9076;SDS011;4574;51.072;17.174;2023-03-14T14:54:12;4.00;;;3.17;;
9076;SDS011;4574;51.072;17.174;2023-03-14T14:56:46;5.23;;;3.80;;
9076;SDS011;4574;51.072;17.174;2023-03-14T14:59:31;6.07;;;3.73;;
9076;SDS011;4574;51.072;17.174;2023-03-14T15:02:01;8.73;;;4.80;;
9076;SDS011;4574;51.072;17.174;2023-03-14T15:04:31;8.77;;;5.33;;
9076;SDS011;4574;51.072;17.174;2023-03-14T15:06:59;5.83;;;4.43;;
9076;SDS011;4574;51.072;17.174;2023-03-14T15:09:28;8.27;;;4.53;;
9076;SDS011;4574;51.072;17.174;2023-03-14T15:11:57;5.87;;;4.57;;
9076;SDS011;4574;51.072;17.174;2023-03-14T15:14:27;11.47;;;5.43;;
9076;SDS011;4574;51.072;17.174;2023-03-14T15:16:56;8.57;;;4.87;;
9076;SDS011;4574;51.072;17.174;2023-03-14T15:19:25;5.97;;;4.20;;
9076;SDS011;4574;51.072;17.174;2023-03-14T15:21:56;7.73;;;4.10;;
9076;SDS011;4574;51.072;17.174;2023-03-14T15:24:24;4.93;;;4.03;;
9076;SDS011;4574;51.072;17.174;2023-03-14T15:26:53;6.30;;;4.20;;
9076;SDS011;4574;51.072;17.174;2023-03-14T15:29:22;5.53;;;4.03;;
9076;SDS011;4574;51.072;17.174;2023-03-14T15:31:52;5.77;;;3.93;;
9076;SDS011;4574;51.072;17.174;2023-03-14T15:34:21;5.50;;;3.60;;
9076;SDS011;4574;51.072;17.174;2023-03-14T15:36:52;7.33;;;3.77;;